Time;durP1;ratioP1;P1;durP2;ratioP2;P2;SDS_P1;SDS_P2;PMS_P1;PMS_P2;Temp;Humidity;BMP_temperature;BMP_pressure;BME280_temperature;BME280_humidity;BME280_pressure;Samples;Min_cycle;Max_cycle;Signal;HPM_P1;HPM_P2
2023/08/20 00:01:23;;;;;;;15.52;6.32;;;18.20;99.90;;;;;;6132214;23;20017;-88
2023/08/20 00:03:50;;;;;;;13.05;6.03;;;18.20;99.90;;;;;;6156550;23;20711;-87
2023/08/20 00:06:16;;;;;;;12.32;5.90;;;18.20;99.90;;;;;;6132446;23;20036;-87
2023/08/20 00:08:42;;;;;;;14.45;6.07;;;18.20;99.90;;;;;;6131822;23;20009;-88
2023/08/20 00:11:08;;;;;;;11.00;5.22;;;18.20;99.90;;;;;;6132888;23;20309;-88
2023/08/20 00:13:34;;;;;;;11.85;5.47;;;18.10;99.90;;;;;;6134348;23;20020;-87
2023/08/20 00:16:00;;;;;;;13.25;5.97;;;18.10;99.90;;;;;;6158879;23;20008;-87
2023/08/20 00:18:26;;;;;;;11.95;5.30;;;18.10;99.90;;;;;;6158553;23;20087;-87
2023/08/20 00:20:53;;;;;;;16.10;6.80;;;18.00;99.90;;;;;;6133946;23;20076;-87
2023/08/20 00:23:18;;;;;;;14.82;6.80;;;18.10;99.90;;;;;;6133745;23;20071;-88
2023/08/20 00:25:44;;;;;;;16.40;7.20;;;18.10;99.90;;;;;;6158550;23;20013;-87
2023/08/20 00:28:10;;;;;;;15.90;6.40;;;18.10;99.90;;;;;;6133778;23;20092;-87
2023/08/20 00:30:35;;;;;;;14.18;6.95;;;18.10;99.90;;;;;;6134437;23;20008;-87
2023/08/20 00:33:01;;;;;;;16.65;7.57;;;18.10;99.90;;;;;;6159351;23;20041;-87
2023/08/20 00:35:27;;;;;;;15.45;7.60;;;18.10;99.90;;;;;;6159097;23;20020;-88
2023/08/20 00:37:52;;;;;;;16.23;8.00;;;18.10;99.90;;;;;;6133705;23;20057;-87
2023/08/20 00:40:18;;;;;;;15.55;7.78;;;18.10;99.90;;;;;;6134137;23;20027;-87
2023/08/20 00:42:44;;;;;;;15.80;8.50;;;18.10;99.90;;;;;;6133986;23;20069;-87
2023/08/20 00:45:09;;;;;;;14.70;5.22;;;18.10;99.90;;;;;;6158697;23;20466;-87
2023/08/20 00:47:36;;;;;;;14.02;7.15;;;18.00;99.90;;;;;;6133693;23;20044;-87
2023/08/20 00:50:05;;;;;;;14.00;7.80;;;18.00;99.90;;;;;;6134504;23;20005;-87
2023/08/20 00:52:31;;;;;;;14.60;6.90;;;18.00;99.90;;;;;;6159192;23;20005;-87
2023/08/20 00:54:58;;;;;;;15.32;6.72;;;17.90;99.90;;;;;;6134092;23;20052;-87
2023/08/20 00:57:23;;;;;;;12.02;4.43;;;17.80;99.90;;;;;;6158285;23;20017;-86
2023/08/20 00:59:50;;;;;;;16.05;7.40;;;17.70;99.90;;;;;;6133626;23;20362;-87
2023/08/20 01:02:17;;;;;;;12.25;6.80;;;17.70;99.90;;;;;;6158138;23;20018;-86
2023/08/20 01:04:45;;;;;;;14.63;7.53;;;17.60;99.90;;;;;;6158130;23;20017;-87
2023/08/20 01:07:29;;;;;;;15.40;7.03;;;17.60;99.90;;;;;;6133585;23;20036;-87
2023/08/20 01:10:08;;;;;;;13.73;6.90;;;17.60;99.90;;;;;;6133875;23;20450;-87
2023/08/20 01:12:35;;;;;;;13.65;7.63;;;17.60;99.90;;;;;;6135012;23;20009;-87
2023/08/20 01:15:01;;;;;;;10.88;5.00;;;17.60;99.90;;;;;;6133141;23;20490;-87
2023/08/20 01:17:26;;;;;;;14.45;8.35;;;17.50;99.90;;;;;;6157481;23;20017;-87
2023/08/20 01:19:52;;;;;;;16.58;8.32;;;17.50;99.90;;;;;;6157561;23;20017;-87
2023/08/20 01:22:48;;;;;;;18.35;7.10;;;17.50;99.90;;;;;;6158433;23;20020;-87
2023/08/20 01:25:53;;;;;;;17.85;9.05;;;17.50;99.90;;;;;;6157328;23;20017;-87
2023/08/20 01:28:27;;;;;;;16.25;8.10;;;17.60;99.90;;;;;;6182547;23;20056;-87
2023/08/20 01:30:56;;;;;;;15.75;8.95;;;17.50;99.90;;;;;;6158411;23;20036;-87
2023/08/20 01:33:22;;;;;;;13.35;5.65;;;17.60;99.90;;;;;;6158289;23;20012;-87
2023/08/20 01:35:48;;;;;;;16.45;8.98;;;17.50;99.90;;;;;;6157847;23;20061;-87
2023/08/20 01:38:13;;;;;;;17.17;9.75;;;17.50;99.90;;;;;;6157734;23;20088;-87
2023/08/20 01:40:39;;;;;;;15.90;8.55;;;17.50;99.90;;;;;;6133408;23;20043;-87
2023/08/20 01:43:04;;;;;;;17.35;8.40;;;17.50;99.90;;;;;;6133583;23;20013;-87
2023/08/20 01:45:30;;;;;;;16.00;8.20;;;17.50;99.90;;;;;;6133238;23;20506;-87
2023/08/20 01:47:55;;;;;;;15.15;8.75;;;17.50;99.90;;;;;;6157497;23;20044;-87
2023/08/20 01:50:21;;;;;;;16.52;9.43;;;17.50;99.90;;;;;;6158384;23;20011;-87
2023/08/20 01:52:47;;;;;;;17.65;10.30;;;17.50;99.90;;;;;;6158660;23;20017;-87
2023/08/20 01:55:13;;;;;;;13.27;6.30;;;17.50;99.90;;;;;;6158669;23;20069;-87
2023/08/20 01:57:39;;;;;;;11.20;5.10;;;17.50;99.90;;;;;;6157724;23;20387;-87
2023/08/20 02:00:06;;;;;;;8.32;4.35;;;17.40;99.90;;;;;;6157717;23;20079;-87
2023/08/20 02:02:32;;;;;;;9.27;4.20;;;17.30;99.90;;;;;;6157696;23;20055;-87
2023/08/20 02:04:58;;;;;;;8.63;4.10;;;17.20;99.90;;;;;;6156811;23;20016;-87
2023/08/20 02:07:23;;;;;;;10.18;3.63;;;17.20;99.90;;;;;;6132900;23;20101;-87
2023/08/20 02:09:49;;;;;;;10.13;5.47;;;17.00;99.90;;;;;;6133072;23;20438;-87
2023/08/20 02:12:15;;;;;;;8.40;4.65;;;17.00;99.90;;;;;;6133817;23;20087;-87
2023/08/20 02:14:40;;;;;;;8.95;4.72;;;17.00;99.90;;;;;;6133138;23;20067;-87
2023/08/20 02:17:08;;;;;;;13.88;7.57;;;17.00;99.90;;;;;;6157732;23;20071;-87
2023/08/20 02:19:33;;;;;;;9.75;5.15;;;17.00;99.90;;;;;;6157198;23;20017;-86
2023/08/20 02:21:59;;;;;;;14.27;10.68;;;16.90;99.90;;;;;;6132927;23;20015;-87
2023/08/20 02:24:25;;;;;;;11.77;6.63;;;17.00;99.90;;;;;;6157320;23;20483;-87
2023/08/20 02:26:50;;;;;;;12.05;5.45;;;16.90;99.90;;;;;;6133265;23;20111;-86
2023/08/20 02:29:16;;;;;;;10.75;6.75;;;16.80;99.90;;;;;;6132507;23;20013;-86
2023/08/20 02:31:41;;;;;;;9.80;5.43;;;16.90;99.90;;;;;;6157977;23;20020;-87
2023/08/20 02:34:07;;;;;;;10.73;7.38;;;16.80;99.90;;;;;;6157865;23;20387;-87
2023/08/20 02:36:33;;;;;;;11.00;5.30;;;16.80;99.90;;;;;;6133279;23;20068;-87
2023/08/20 02:38:58;;;;;;;10.65;5.00;;;16.70;99.90;;;;;;6132584;23;20024;-87
2023/08/20 02:41:27;;;;;;;18.50;12.05;;;16.60;99.90;;;;;;6157826;23;20016;-88
2023/08/20 02:43:52;;;;;;;16.90;11.35;;;16.70;99.90;;;;;;6132787;23;20021;-85
2023/08/20 02:46:18;;;;;;;11.02;5.60;;;16.80;99.90;;;;;;6157572;23;20282;-85
2023/08/20 02:48:43;;;;;;;9.50;7.20;;;16.80;99.90;;;;;;6132342;23;20059;-85
2023/08/20 02:51:09;;;;;;;12.38;8.65;;;16.80;99.90;;;;;;6133309;23;20013;-85
2023/08/20 02:53:35;;;;;;;14.60;9.65;;;16.80;99.90;;;;;;6157826;23;20009;-85
2023/08/20 02:56:00;;;;;;;12.07;8.15;;;16.80;99.90;;;;;;6133204;23;20379;-85
2023/08/20 02:58:26;;;;;;;13.25;7.50;;;16.80;99.90;;;;;;6157273;23;20044;-85
2023/08/20 03:00:52;;;;;;;9.63;5.13;;;16.80;99.90;;;;;;6157447;23;20037;-85
2023/08/20 03:03:18;;;;;;;14.90;8.63;;;16.80;99.90;;;;;;6157092;23;20351;-85
2023/08/20 03:05:44;;;;;;;10.45;5.40;;;16.80;99.90;;;;;;6131655;23;20009;-85
2023/08/20 03:08:09;;;;;;;13.55;9.32;;;16.80;99.90;;;;;;6156207;23;20047;-85
2023/08/20 03:10:35;;;;;;;13.75;9.82;;;16.80;99.90;;;;;;6156905;23;20009;-85
2023/08/20 03:13:02;;;;;;;16.30;10.07;;;16.80;99.90;;;;;;6157467;23;20045;-85
2023/08/20 03:15:31;;;;;;;15.02;10.20;;;16.90;99.90;;;;;;6157606;23;20020;-85
2023/08/20 03:17:56;;;;;;;17.10;10.20;;;16.90;99.90;;;;;;6132674;23;20067;-85
2023/08/20 03:20:22;;;;;;;15.77;9.95;;;16.90;99.90;;;;;;6132584;23;20020;-85
2023/08/20 03:22:48;;;;;;;17.67;10.15;;;16.90;99.90;;;;;;6156848;23;20144;-85
2023/08/20 03:25:14;;;;;;;15.48;5.68;;;16.90;99.90;;;;;;6132139;23;20049;-85
2023/08/20 03:27:39;;;;;;;16.70;10.35;;;16.90;99.90;;;;;;6156707;23;20064;-86
2023/08/20 03:30:06;;;;;;;15.95;11.00;;;16.90;99.90;;;;;;6156852;23;20463;-86
2023/08/20 03:32:32;;;;;;;15.70;11.27;;;17.00;99.90;;;;;;6133057;23;20067;-87
2023/08/20 03:34:59;;;;;;;18.42;13.27;;;17.00;99.90;;;;;;6132822;23;20013;-86
2023/08/20 03:37:25;;;;;;;20.85;13.30;;;17.00;99.90;;;;;;6131975;23;20017;-86
2023/08/20 03:39:51;;;;;;;14.77;7.57;;;17.10;99.90;;;;;;6132362;23;20041;-86
2023/08/20 03:42:17;;;;;;;17.27;12.80;;;17.00;99.90;;;;;;6131989;23;20068;-86
2023/08/20 03:44:43;;;;;;;18.40;12.80;;;17.00;99.90;;;;;;6156449;23;20013;-86
2023/08/20 03:47:08;;;;;;;19.52;14.18;;;17.10;99.90;;;;;;6157734;23;20088;-87
2023/08/20 03:49:34;;;;;;;21.20;13.85;;;17.10;99.90;;;;;;6158974;23;20017;-86
2023/08/20 03:52:01;;;;;;;18.70;13.57;;;17.10;99.90;;;;;;6159505;23;20020;-86
2023/08/20 03:54:28;;;;;;;13.40;7.82;;;17.10;99.90;;;;;;6159670;23;20013;-86
2023/08/20 03:56:54;;;;;;;18.38;11.73;;;17.10;99.90;;;;;;6134616;23;20017;-86
2023/08/20 03:59:20;;;;;;;17.05;12.10;;;17.00;99.90;;;;;;6158812;23;20103;-87
2023/08/20 04:01:45;;;;;;;15.10;10.43;;;17.00;99.90;;;;;;6159250;23;20013;-86
2023/08/20 04:04:11;;;;;;;13.48;7.88;;;16.90;99.90;;;;;;6158516;23;20014;-87
2023/08/20 04:06:36;;;;;;;23.85;15.50;;;16.80;99.90;;;;;;6133829;23;20012;-86
2023/08/20 04:09:03;;;;;;;21.40;15.38;;;16.80;99.90;;;;;;6134122;23;20037;-86
2023/08/20 04:11:28;;;;;;;22.02;15.65;;;16.90;99.90;;;;;;6158188;23;20087;-87
2023/08/20 04:13:54;;;;;;;23.55;17.33;;;16.90;99.90;;;;;;6158699;23;20044;-86
2023/08/20 04:16:20;;;;;;;15.43;9.55;;;16.90;99.90;;;;;;6159176;23;20020;-86
2023/08/20 04:18:45;;;;;;;16.80;10.25;;;16.90;99.90;;;;;;6134142;23;20045;-86
2023/08/20 04:21:11;;;;;;;20.17;14.82;;;16.90;99.90;;;;;;6158750;23;20349;-86
2023/08/20 04:23:36;;;;;;;23.45;15.57;;;16.90;99.90;;;;;;6134149;23;20017;-86
2023/08/20 04:26:02;;;;;;;20.33;14.63;;;16.90;99.90;;;;;;6133784;23;20402;-86
2023/08/20 04:28:28;;;;;;;17.67;13.88;;;16.90;99.90;;;;;;6158386;23;20059;-87
2023/08/20 04:30:54;;;;;;;15.43;9.32;;;16.90;99.90;;;;;;6133902;23;20485;-86
2023/08/20 04:33:20;;;;;;;18.10;9.00;;;16.90;99.90;;;;;;6159392;23;20013;-86
2023/08/20 04:35:46;;;;;;;20.92;14.93;;;16.80;99.90;;;;;;6159198;23;20013;-86
2023/08/20 04:38:11;;;;;;;19.80;14.75;;;16.90;99.90;;;;;;6133900;23;20095;-86
2023/08/20 04:40:37;;;;;;;13.77;7.82;;;16.90;99.90;;;;;;6133580;23;20013;-86
2023/08/20 04:43:03;;;;;;;18.20;14.60;;;16.90;99.90;;;;;;6158402;23;20072;-86
2023/08/20 04:45:28;;;;;;;19.58;15.52;;;16.90;99.90;;;;;;6184524;23;20458;-86
2023/08/20 04:47:54;;;;;;;18.88;14.77;;;16.90;99.90;;;;;;6158045;23;20351;-86
2023/08/20 04:50:19;;;;;;;16.95;14.55;;;16.90;99.90;;;;;;6134022;23;20013;-86
2023/08/20 04:52:45;;;;;;;19.80;8.52;;;16.90;99.90;;;;;;6158706;23;20009;-87
2023/08/20 04:55:11;;;;;;;16.17;13.32;;;16.90;99.90;;;;;;6159353;23;20020;-86
2023/08/20 04:57:37;;;;;;;19.77;14.70;;;16.90;99.90;;;;;;6158236;23;20102;-86
2023/08/20 05:00:03;;;;;;;13.05;7.28;;;16.90;99.90;;;;;;6158300;23;20418;-86
2023/08/20 05:02:28;;;;;;;17.20;13.00;;;16.90;99.90;;;;;;6158217;23;20362;-86
2023/08/20 05:04:54;;;;;;;12.70;8.52;;;16.90;99.90;;;;;;6158106;23;20454;-86
2023/08/20 05:07:20;;;;;;;16.90;12.52;;;16.90;99.90;;;;;;6156056;23;20012;-85
2023/08/20 05:09:46;;;;;;;17.92;8.60;;;16.90;99.90;;;;;;6161365;23;20454;-86
2023/08/20 05:12:11;;;;;;;19.35;13.85;;;16.90;99.90;;;;;;6135453;23;20033;-86
2023/08/20 05:14:37;;;;;;;18.08;14.20;;;16.90;99.90;;;;;;6136041;23;20162;-86
2023/08/20 05:17:03;;;;;;;18.95;14.15;;;17.00;99.90;;;;;;6160120;23;20013;-86
2023/08/20 05:19:29;;;;;;;16.60;14.02;;;17.00;99.90;;;;;;6159595;23;20013;-86
2023/08/20 05:21:56;;;;;;;11.77;8.30;;;17.10;99.90;;;;;;6159480;23;20454;-86
2023/08/20 05:24:22;;;;;;;18.60;13.57;;;17.00;99.90;;;;;;6158146;23;20013;-86
2023/08/20 05:27:04;;;;;;;17.10;11.85;;;17.00;99.90;;;;;;6133420;23;20442;-86
2023/08/20 05:29:29;;;;;;;12.23;9.48;;;17.00;99.90;;;;;;6133278;23;20013;-86
2023/08/20 05:31:55;;;;;;;13.05;10.65;;;17.00;99.90;;;;;;6133421;23;20039;-86
2023/08/20 05:34:20;;;;;;;11.13;6.38;;;17.00;99.90;;;;;;6158669;23;20474;-86
2023/08/20 05:36:46;;;;;;;16.33;12.25;;;16.90;99.90;;;;;;6133856;23;20023;-86
2023/08/20 05:39:11;;;;;;;17.08;11.27;;;16.90;99.90;;;;;;6158049;23;20016;-86
2023/08/20 05:41:37;;;;;;;15.52;10.77;;;17.00;99.90;;;;;;6158247;23;20016;-86
2023/08/20 05:44:03;;;;;;;13.30;7.15;;;17.00;99.90;;;;;;6157692;23;20009;-87
2023/08/20 05:46:28;;;;;;;12.85;8.32;;;17.00;99.90;;;;;;6132385;23;20398;-86
2023/08/20 05:48:54;;;;;;;16.83;11.75;;;17.00;99.90;;;;;;6156445;23;20480;-87
2023/08/20 05:51:20;;;;;;;15.23;8.30;;;17.10;99.90;;;;;;6157119;23;20013;-86
2023/08/20 05:53:45;;;;;;;16.58;11.52;;;17.10;99.90;;;;;;6157528;23;20088;-86
2023/08/20 05:56:11;;;;;;;14.27;7.07;;;17.10;99.90;;;;;;6133994;23;20013;-87
2023/08/20 05:58:36;;;;;;;12.65;8.55;;;17.10;99.90;;;;;;6157984;23;20392;-86
2023/08/20 06:01:02;;;;;;;16.50;13.32;;;17.10;99.90;;;;;;6157800;23;20009;-86
2023/08/20 06:03:27;;;;;;;15.30;12.55;;;17.20;99.90;;;;;;6157784;23;20016;-87
2023/08/20 06:05:53;;;;;;;11.60;7.63;;;17.30;99.90;;;;;;6157441;23;20095;-86
2023/08/20 06:08:18;;;;;;;14.98;12.27;;;17.30;99.90;;;;;;6132460;23;20075;-86
2023/08/20 06:10:44;;;;;;;20.10;9.55;;;17.30;99.90;;;;;;6156990;23;20040;-86
2023/08/20 06:13:10;;;;;;;18.00;12.93;;;17.30;99.90;;;;;;6158351;23;20009;-86
2023/08/20 06:15:35;;;;;;;17.85;13.50;;;17.40;99.90;;;;;;6158270;23;20505;-86
2023/08/20 06:18:01;;;;;;;17.83;13.82;;;17.40;99.90;;;;;;6157883;23;20013;-86
2023/08/20 06:20:26;;;;;;;17.35;9.25;;;17.50;99.90;;;;;;6133785;23;20005;-86
2023/08/20 06:22:52;;;;;;;17.88;13.90;;;17.50;99.90;;;;;;6132900;23;20063;-86
2023/08/20 06:25:18;;;;;;;16.98;13.65;;;17.60;99.90;;;;;;6157283;23;20332;-86
2023/08/20 06:27:43;;;;;;;16.55;9.18;;;17.60;99.90;;;;;;6156833;23;20012;-87
2023/08/20 06:30:09;;;;;;;17.95;13.40;;;17.60;99.90;;;;;;6133055;23;20482;-87
2023/08/20 06:32:35;;;;;;;19.45;13.30;;;17.70;99.90;;;;;;6133093;23;20012;-87
2023/08/20 06:35:00;;;;;;;18.63;12.15;;;17.80;99.90;;;;;;6133347;23;20017;-87
2023/08/20 06:37:26;;;;;;;17.27;11.85;;;17.90;99.90;;;;;;6156961;23;20013;-87
2023/08/20 06:39:51;;;;;;;16.98;7.72;;;18.00;99.90;;;;;;6157511;23;20013;-87
2023/08/20 06:42:17;;;;;;;16.05;11.10;;;18.00;99.90;;;;;;6132499;23;20013;-87
2023/08/20 06:44:42;;;;;;;18.60;11.52;;;18.10;99.90;;;;;;6132529;23;20088;-87
2023/08/20 06:47:08;;;;;;;20.60;10.60;;;18.20;99.90;;;;;;6132563;23;20064;-88
2023/08/20 06:49:34;;;;;;;17.15;10.15;;;18.30;99.90;;;;;;6157428;23;20522;-88
2023/08/20 06:51:59;;;;;;;17.50;10.32;;;18.30;99.90;;;;;;6157181;23;20044;-87
2023/08/20 06:54:25;;;;;;;16.23;10.00;;;18.40;99.90;;;;;;6158419;23;20106;-88
2023/08/20 06:56:50;;;;;;;19.27;10.45;;;18.50;99.90;;;;;;6132960;23;20446;-87
2023/08/20 06:59:17;;;;;;;17.55;10.25;;;18.50;99.90;;;;;;6157588;23;20115;-87
2023/08/20 07:01:42;;;;;;;15.35;7.88;;;18.60;99.90;;;;;;6157066;23;20013;-87
2023/08/20 07:04:08;;;;;;;17.85;9.50;;;18.60;99.90;;;;;;6157244;23;20044;-88
2023/08/20 07:06:34;;;;;;;15.20;8.80;;;18.70;99.90;;;;;;6156448;23;20087;-87
2023/08/20 07:08:59;;;;;;;16.42;10.13;;;18.80;99.90;;;;;;6156737;23;20017;-88
2023/08/20 07:11:25;;;;;;;14.85;8.35;;;18.90;99.90;;;;;;6156944;23;20009;-87
2023/08/20 07:13:50;;;;;;;14.93;8.43;;;18.90;99.90;;;;;;6158363;23;20024;-87
2023/08/20 07:16:16;;;;;;;17.58;10.50;;;19.00;99.90;;;;;;6158058;23;20024;-88
2023/08/20 07:18:41;;;;;;;16.02;8.85;;;19.10;99.90;;;;;;6157094;23;20407;-88
2023/08/20 07:21:07;;;;;;;16.92;9.48;;;19.20;99.90;;;;;;6157694;23;20013;-88
2023/08/20 07:23:34;;;;;;;16.38;9.70;;;19.20;99.90;;;;;;6156707;23;20017;-87
2023/08/20 07:26:07;;;;;;;15.10;9.48;;;19.30;99.90;;;;;;6132140;23;20017;-87
2023/08/20 07:31:18;;;;;;;14.75;8.65;;;19.40;99.90;;;;;;6157165;23;20016;-88
2023/08/20 07:33:48;;;;;;;13.55;8.88;;;19.50;99.90;;;;;;6133149;23;20013;-87
2023/08/20 07:36:14;;;;;;;17.75;7.80;;;19.50;99.90;;;;;;6158149;23;20013;-88
2023/08/20 07:38:42;;;;;;;16.05;8.50;;;19.60;99.90;;;;;;6157181;23;20020;-88
2023/08/20 07:41:11;;;;;;;14.45;8.48;;;19.60;99.90;;;;;;6132663;23;20032;-87
2023/08/20 07:43:38;;;;;;;14.48;8.02;;;19.70;99.90;;;;;;6132508;23;20005;-87
2023/08/20 07:46:04;;;;;;;15.80;7.95;;;19.70;99.90;;;;;;6132549;23;20120;-88
2023/08/20 07:48:30;;;;;;;15.52;7.30;;;19.80;99.90;;;;;;6156412;23;20067;-88
2023/08/20 07:50:55;;;;;;;14.48;7.00;;;19.90;99.90;;;;;;6157188;23;20088;-88
2023/08/20 07:53:21;;;;;;;15.77;7.70;;;19.90;99.90;;;;;;6132930;23;20016;-88
2023/08/20 07:55:47;;;;;;;13.77;7.78;;;20.00;99.90;;;;;;6158148;23;20398;-88
2023/08/20 07:58:12;;;;;;;15.77;7.55;;;20.10;99.90;;;;;;6156751;23;20036;-88
2023/08/20 08:00:38;;;;;;;14.15;6.63;;;20.10;99.90;;;;;;6132734;23;20052;-88
2023/08/20 08:03:04;;;;;;;16.67;6.47;;;20.20;99.90;;;;;;6156851;23;20017;-87
2023/08/20 08:05:30;;;;;;;13.30;5.88;;;20.30;99.90;;;;;;6132239;23;20510;-88
2023/08/20 08:07:56;;;;;;;13.32;5.97;;;20.40;99.90;;;;;;6131929;23;20112;-88
2023/08/20 08:10:22;;;;;;;16.00;6.35;;;20.40;99.90;;;;;;6156883;23;20016;-87
2023/08/20 08:12:47;;;;;;;14.65;5.97;;;20.40;99.90;;;;;;6156937;23;20395;-88
2023/08/20 08:15:13;;;;;;;12.95;5.68;;;20.50;99.90;;;;;;6132628;23;20087;-88
2023/08/20 08:17:39;;;;;;;10.93;4.85;;;20.60;99.90;;;;;;6132300;23;20056;-87
2023/08/20 08:20:05;;;;;;;14.40;6.15;;;20.60;99.90;;;;;;6132464;23;20413;-88
2023/08/20 08:22:31;;;;;;;14.75;5.90;;;20.70;99.90;;;;;;6156726;23;20009;-88
2023/08/20 08:24:57;;;;;;;10.98;4.40;;;20.70;99.90;;;;;;6156534;23;20410;-87
2023/08/20 08:27:22;;;;;;;13.02;4.43;;;20.80;99.90;;;;;;6183072;23;20013;-88
2023/08/20 08:29:48;;;;;;;12.68;4.97;;;20.80;99.90;;;;;;6156375;23;20005;-88
2023/08/20 08:32:14;;;;;;;11.23;4.22;;;20.90;99.90;;;;;;6132404;23;20394;-88
2023/08/20 08:34:40;;;;;;;13.00;4.53;;;21.00;99.90;;;;;;6158978;23;20067;-88
2023/08/20 08:37:05;;;;;;;12.35;4.60;;;21.00;99.90;;;;;;6185245;23;20040;-88
2023/08/20 08:39:32;;;;;;;11.02;4.40;;;21.10;99.90;;;;;;6185303;23;20055;-88
2023/08/20 08:42:04;;;;;;;10.48;3.72;;;21.20;99.90;;;;;;6133750;23;20047;-88
2023/08/20 08:44:34;;;;;;;12.70;4.43;;;21.30;99.90;;;;;;6158573;23;20074;-88
2023/08/20 08:47:07;;;;;;;12.05;4.10;;;21.30;99.90;;;;;;6133718;23;20095;-88
2023/08/20 08:49:33;;;;;;;;;;;21.50;99.90;;;;;;6133849;23;20092;-88
2023/08/20 08:51:59;;;;;;;9.43;2.97;;;21.50;99.90;;;;;;6158231;23;19943;-88
2023/08/20 08:54:27;;;;;;;11.15;2.90;;;21.60;99.90;;;;;;6134278;23;20474;-88
2023/08/20 08:56:53;;;;;;;11.02;2.90;;;21.60;99.90;;;;;;6159307;23;20093;-88
2023/08/20 08:59:19;;;;;;;10.95;3.08;;;21.70;99.90;;;;;;6158874;23;20041;-88
2023/08/20 09:01:46;;;;;;;10.23;2.90;;;21.70;99.90;;;;;;6158690;23;20055;-88
2023/08/20 09:04:12;;;;;;;8.88;2.55;;;21.80;99.90;;;;;;6158114;23;20469;-88
2023/08/20 09:06:51;;;;;;;9.65;3.03;;;21.80;99.90;;;;;;6157908;23;20013;-88
2023/08/20 09:09:19;;;;;;;8.95;2.55;;;21.90;99.90;;;;;;6132954;23;20013;-88
2023/08/20 09:11:45;;;;;;;10.32;2.78;;;21.90;99.90;;;;;;6158349;23;20017;-88
2023/08/20 09:14:24;;;;;;;7.82;2.47;;;22.00;99.90;;;;;;6133952;23;20021;-88
2023/08/20 09:17:00;;;;;;;9.20;2.60;;;22.10;99.90;;;;;;6158800;23;20074;-88
2023/08/20 09:19:39;;;;;;;9.90;2.60;;;22.10;99.90;;;;;;6133878;23;20020;-89
2023/08/20 09:22:05;;;;;;;11.05;2.42;;;22.20;99.90;;;;;;6133806;23;20457;-89
2023/08/20 09:24:43;;;;;;;9.73;2.72;;;22.20;99.90;;;;;;6133429;23;20459;-89
2023/08/20 09:27:09;;;;;;;9.98;2.60;;;22.30;99.90;;;;;;6184553;23;20076;-88
2023/08/20 09:29:49;;;;;;;8.48;2.35;;;22.40;99.90;;;;;;6133482;23;20596;-88
2023/08/20 09:32:23;;;;;;;8.95;2.00;;;22.50;99.90;;;;;;6184933;23;20009;-88
2023/08/20 09:34:50;;;;;;;7.20;1.80;;;22.50;99.90;;;;;;6134367;23;20020;-88
2023/08/20 09:37:17;;;;;;;9.25;2.22;;;22.60;99.90;;;;;;6133687;23;20021;-88
2023/08/20 09:39:43;;;;;;;9.95;2.72;;;22.60;99.90;;;;;;6184773;23;20044;-88
2023/08/20 09:42:10;;;;;;;9.18;2.00;;;22.70;99.90;;;;;;6157701;23;20358;-88
2023/08/20 09:44:39;;;;;;;9.00;1.95;;;22.70;99.90;;;;;;6157187;23;20013;-88
2023/08/20 09:47:10;;;;;;;8.52;1.80;;;22.80;99.90;;;;;;6132973;23;20016;-89
2023/08/20 09:49:39;;;;;;;8.30;2.10;;;22.80;99.90;;;;;;6133163;23;20359;-88
2023/08/20 09:52:09;;;;;;;8.80;1.75;;;22.90;99.90;;;;;;6157815;23;20481;-88
2023/08/20 09:55:10;;;;;;;8.98;2.08;;;23.00;99.90;;;;;;6158543;23;20024;-88
2023/08/20 09:57:38;;;;;;;8.00;2.10;;;23.00;99.90;;;;;;6185258;23;20041;-88
2023/08/20 10:00:06;;;;;;;8.98;1.70;;;23.00;99.90;;;;;;6133583;23;20063;-88
2023/08/20 10:02:33;;;;;;;8.00;1.73;;;23.10;99.90;;;;;;6133254;23;20071;-88
2023/08/20 10:05:02;;;;;;;8.70;2.00;;;23.20;99.90;;;;;;6157686;23;20013;-88
2023/08/20 10:07:31;;;;;;;7.05;1.73;;;23.30;99.90;;;;;;6157134;23;20024;-88
2023/08/20 10:10:00;;;;;;;9.05;1.70;;;23.30;99.90;;;;;;6157397;23;20054;-88
2023/08/20 10:12:32;;;;;;;9.82;1.70;;;23.30;99.90;;;;;;6184059;23;20473;-88
2023/08/20 10:14:59;;;;;;;6.10;1.52;;;23.40;98.80;;;;;;6158219;23;20044;-88
2023/08/20 10:17:25;;;;;;;7.93;2.00;;;23.40;96.10;;;;;;6158413;23;20020;-88
2023/08/20 10:19:54;;;;;;;9.82;2.53;;;23.40;96.30;;;;;;6132454;23;20477;-88
2023/08/20 10:22:38;;;;;;;6.38;1.77;;;23.50;99.90;;;;;;6158095;23;20056;-89
2023/08/20 10:25:08;;;;;;;8.07;1.80;;;23.50;99.20;;;;;;6183714;23;20021;-88
2023/08/20 10:27:45;;;;;;;8.35;1.90;;;23.60;99.90;;;;;;6182876;23;20019;-89
2023/08/20 10:30:17;;;;;;;7.78;1.80;;;23.70;99.40;;;;;;6155879;23;20013;-89
2023/08/20 10:32:58;;;;;;;7.50;1.90;;;23.70;97.80;;;;;;6157080;23;20052;-89
2023/08/20 10:35:46;;;;;;;8.23;2.08;;;23.80;99.90;;;;;;6132505;23;20023;-89
2023/08/20 10:38:13;;;;;;;7.95;1.98;;;23.90;99.80;;;;;;6133072;23;20017;-89
2023/08/20 10:40:56;;;;;;;8.93;1.75;;;23.90;97.10;;;;;;6133227;23;20016;-89
2023/08/20 10:43:35;;;;;;;6.47;1.42;;;23.90;99.90;;;;;;6156882;23;20052;-89
2023/08/20 10:46:23;;;;;;;8.10;1.55;;;24.10;99.90;;;;;;6182968;23;20647;-88
2023/08/20 10:48:52;;;;;;;7.55;1.60;;;24.20;96.40;;;;;;6156805;23;20013;-88
2023/08/20 10:51:24;;;;;;;5.63;1.35;;;24.20;97.30;;;;;;6133041;23;20347;-88
2023/08/20 10:54:05;;;;;;;5.05;1.15;;;24.20;91.00;;;;;;6132924;23;20020;-89
2023/08/20 10:56:55;;;;;;;7.80;1.70;;;24.20;91.20;;;;;;6158118;23;20013;-89
2023/08/20 10:59:27;;;;;;;6.28;1.40;;;24.30;92.90;;;;;;6133029;23;20359;-89
2023/08/20 11:01:55;;;;;;;6.65;1.30;;;24.40;96.80;;;;;;6157569;23;20088;-89
2023/08/20 11:04:26;;;;;;;8.68;1.90;;;24.40;93.20;;;;;;6132278;23;20406;-89
2023/08/20 11:06:54;;;;;;;8.68;1.75;;;24.50;91.40;;;;;;6157463;23;20047;-89
2023/08/20 11:09:25;;;;;;;10.85;1.98;;;24.50;91.00;;;;;;6157188;23;20013;-89
2023/08/20 11:11:51;;;;;;;8.60;1.70;;;24.50;92.50;;;;;;6157080;23;20443;-89
2023/08/20 11:14:21;;;;;;;7.53;1.45;;;24.50;94.60;;;;;;6156909;23;20575;-89
2023/08/20 11:16:48;;;;;;;5.50;1.27;;;24.60;95.60;;;;;;6158092;23;20049;-90
2023/08/20 11:19:14;;;;;;;8.30;1.40;;;24.70;92.20;;;;;;6157580;23;20020;-89
2023/08/20 11:21:42;;;;;;;7.95;1.42;;;24.70;90.70;;;;;;6131452;23;20017;-90
2023/08/20 11:24:08;;;;;;;6.82;1.55;;;24.70;90.20;;;;;;6157131;23;20405;-89
2023/08/20 11:26:38;;;;;;;6.38;1.50;;;24.80;88.90;;;;;;6156834;23;20060;-89
2023/08/20 11:29:23;;;;;;;5.00;1.38;;;24.90;88.50;;;;;;6156711;23;20517;-89
2023/08/20 11:31:49;;;;;;;5.80;1.20;;;25.00;88.90;;;;;;6156452;23;20076;-90
2023/08/20 11:34:16;;;;;;;8.45;1.40;;;25.00;88.50;;;;;;6157506;23;20020;-89
2023/08/20 11:36:42;;;;;;;4.82;1.40;;;25.20;89.10;;;;;;6133954;23;20052;-89
2023/08/20 11:39:08;;;;;;;5.50;1.20;;;25.20;83.90;;;;;;6181491;23;20047;-89
2023/08/20 11:41:38;;;;;;;7.72;1.63;;;25.20;82.60;;;;;;6157652;23;20069;-89
2023/08/20 11:44:05;;;;;;;6.60;1.23;;;25.30;80.60;;;;;;6132119;23;20100;-89
2023/08/20 11:46:30;;;;;;;6.88;1.45;;;25.30;81.10;;;;;;6157029;23;20095;-90
2023/08/20 11:49:03;;;;;;;8.95;2.00;;;25.40;80.40;;;;;;6183125;23;20009;-89
2023/08/20 11:51:34;;;;;;;7.75;2.08;;;25.50;81.10;;;;;;6132796;23;20083;-90
2023/08/20 11:54:04;;;;;;;5.80;1.40;;;25.50;81.30;;;;;;6132820;23;20485;-90
2023/08/20 11:56:30;;;;;;;6.72;1.60;;;25.70;80.90;;;;;;6133351;23;20009;-89
2023/08/20 11:59:00;;;;;;;6.63;1.63;;;25.80;80.00;;;;;;6157045;23;20044;-90
2023/08/20 12:01:29;;;;;;;5.30;1.45;;;25.80;80.60;;;;;;6133140;23;20048;-89
2023/08/20 12:04:00;;;;;;;4.65;1.10;;;25.90;81.10;;;;;;6183249;23;20013;-90
2023/08/20 12:06:30;;;;;;;4.40;1.20;;;26.00;77.30;;;;;;6132384;23;20371;-89
2023/08/20 12:09:17;;;;;;;5.53;1.40;;;26.10;78.70;;;;;;6133215;23;20470;-90
2023/08/20 12:11:55;;;;;;;5.13;1.35;;;26.10;79.00;;;;;;6158463;23;20009;-90
2023/08/20 12:14:22;;;;;;;8.38;1.60;;;26.20;80.00;;;;;;6158930;23;20507;-89
2023/08/20 12:16:51;;;;;;;6.25;1.42;;;26.40;82.90;;;;;;6159667;23;20448;-89
2023/08/20 12:19:20;;;;;;;7.47;1.40;;;26.50;84.20;;;;;;6158487;23;20013;-90
2023/08/20 12:21:55;;;;;;;7.60;1.30;;;26.70;78.80;;;;;;6135710;23;20087;-90
2023/08/20 12:24:26;;;;;;;6.88;1.17;;;26.70;74.80;;;;;;6155439;23;20059;-90
2023/08/20 12:27:10;;;;;;;5.32;1.10;;;26.80;73.50;;;;;;6136017;23;20017;-90
2023/08/20 12:29:41;;;;;;;3.75;0.80;;;26.90;75.80;;;;;;6134642;23;20078;-90
2023/08/20 12:32:17;;;;;;;4.85;1.10;;;27.00;70.40;;;;;;6135460;23;20506;-90
2023/08/20 12:34:44;;;;;;;5.95;0.98;;;26.90;68.30;;;;;;6159144;23;20126;-89
2023/08/20 12:37:15;;;;;;;5.43;1.30;;;27.00;68.60;;;;;;6135230;23;20424;-90
2023/08/20 12:39:46;;;;;;;6.20;1.30;;;27.20;72.00;;;;;;6159702;23;20390;-89
2023/08/20 12:42:24;;;;;;;6.18;1.15;;;27.30;74.70;;;;;;6135807;23;20021;-89
2023/08/20 12:44:56;;;;;;;4.13;1.13;;;27.20;73.70;;;;;;6159016;23;20024;-89